sensor_id;sensor_type;location;lat;lon;timestamp;pressure;altitude;pressure_sealevel;temperature;humidity
44148;BME280;29810;55.848;37.368;2023-02-28T00:02:27;99566.00;;;-7.74;88.17
44148;BME280;29810;55.848;37.368;2023-02-28T00:05:29;99558.22;;;-7.78;88.04
44148;BME280;29810;55.848;37.368;2023-02-28T00:08:31;99555.38;;;-7.86;87.78
44148;BME280;29810;55.848;37.368;2023-02-28T00:11:33;99554.75;;;-7.80;88.33
44148;BME280;29810;55.848;37.368;2023-02-28T00:14:34;99552.69;;;-7.89;88.46
44148;BME280;29810;55.848;37.368;2023-02-28T00:17:37;99555.66;;;-8.00;88.14
44148;BME280;29810;55.848;37.368;2023-02-28T00:20:39;99548.50;;;-7.89;88.22
44148;BME280;29810;55.848;37.368;2023-02-28T00:23:41;99538.56;;;-8.04;87.54
44148;BME280;29810;55.848;37.368;2023-02-28T00:26:45;99542.56;;;-8.09;87.40
44148;BME280;29810;55.848;37.368;2023-02-28T00:29:47;99535.25;;;-8.22;87.73
44148;BME280;29810;55.848;37.368;2023-02-28T00:32:50;99535.75;;;-8.11;88.26
44148;BME280;29810;55.848;37.368;2023-02-28T00:35:52;99538.41;;;-8.08;88.19
44148;BME280;29810;55.848;37.368;2023-02-28T00:38:53;99530.34;;;-8.00;87.65
44148;BME280;29810;55.848;37.368;2023-02-28T00:41:55;99527.06;;;-7.97;87.27
44148;BME280;29810;55.848;37.368;2023-02-28T00:44:56;99530.91;;;-8.05;87.03
44148;BME280;29810;55.848;37.368;2023-02-28T00:47:57;99532.44;;;-8.09;87.23
44148;BME280;29810;55.848;37.368;2023-02-28T00:50:59;99523.16;;;-8.10;87.50
44148;BME280;29810;55.848;37.368;2023-02-28T00:54:01;99510.81;;;-8.02;87.64
44148;BME280;29810;55.848;37.368;2023-02-28T00:57:02;99504.69;;;-7.88;87.01
44148;BME280;29810;55.848;37.368;2023-02-28T01:00:07;99504.50;;;-8.12;86.66
44148;BME280;29810;55.848;37.368;2023-02-28T01:03:09;99496.63;;;-8.18;87.31
44148;BME280;29810;55.848;37.368;2023-02-28T01:06:11;99493.19;;;-8.20;87.50
44148;BME280;29810;55.848;37.368;2023-02-28T01:09:13;99489.78;;;-8.21;87.44
44148;BME280;29810;55.848;37.368;2023-02-28T01:12:16;99478.69;;;-8.24;87.58
44148;BME280;29810;55.848;37.368;2023-02-28T01:15:18;99463.50;;;-8.24;87.49
44148;BME280;29810;55.848;37.368;2023-02-28T01:18:21;99461.31;;;-8.36;87.67
44148;BME280;29810;55.848;37.368;2023-02-28T01:21:23;99455.88;;;-8.45;87.80
44148;BME280;29810;55.848;37.368;2023-02-28T01:24:25;99453.03;;;-8.53;88.11
44148;BME280;29810;55.848;37.368;2023-02-28T01:27:26;99455.88;;;-8.65;88.41
44148;BME280;29810;55.848;37.368;2023-02-28T01:30:30;99444.91;;;-8.66;88.90
44148;BME280;29810;55.848;37.368;2023-02-28T01:33:32;99432.28;;;-8.66;89.08
44148;BME280;29810;55.848;37.368;2023-02-28T01:36:34;99426.59;;;-8.60;89.16
44148;BME280;29810;55.848;37.368;2023-02-28T01:39:37;99425.75;;;-8.60;88.88
44148;BME280;29810;55.848;37.368;2023-02-28T01:42:39;99416.81;;;-8.72;89.05
44148;BME280;29810;55.848;37.368;2023-02-28T01:45:40;99410.47;;;-8.63;89.35
44148;BME280;29810;55.848;37.368;2023-02-28T01:48:51;99401.75;;;-8.70;89.09
44148;BME280;29810;55.848;37.368;2023-02-28T01:51:54;99399.81;;;-8.76;89.42
44148;BME280;29810;55.848;37.368;2023-02-28T01:55:01;99392.88;;;-8.80;89.67
44148;BME280;29810;55.848;37.368;2023-02-28T01:58:06;99380.12;;;-8.83;89.84
44148;BME280;29810;55.848;37.368;2023-02-28T02:01:10;99388.78;;;-8.78;89.86
44148;BME280;29810;55.848;37.368;2023-02-28T02:04:27;99387.03;;;-8.79;89.80
44148;BME280;29810;55.848;37.368;2023-02-28T02:07:35;99380.53;;;-8.74;89.97
44148;BME280;29810;55.848;37.368;2023-02-28T02:10:46;99379.84;;;-8.70;90.10
44148;BME280;29810;55.848;37.368;2023-02-28T02:17:32;99363.66;;;-8.54;90.24
44148;BME280;29810;55.848;37.368;2023-02-28T02:38:50;99343.38;;;-8.55;89.42
44148;BME280;29810;55.848;37.368;2023-02-28T02:41:54;99331.72;;;-8.52;89.48
44148;BME280;29810;55.848;37.368;2023-02-28T02:45:05;99329.72;;;-8.59;89.14
44148;BME280;29810;55.848;37.368;2023-02-28T02:48:10;99319.06;;;-8.73;89.61
44148;BME280;29810;55.848;37.368;2023-02-28T02:51:17;99311.47;;;-8.73;89.77
44148;BME280;29810;55.848;37.368;2023-02-28T02:54:23;99300.47;;;-8.73;89.77
44148;BME280;29810;55.848;37.368;2023-02-28T03:00:38;99284.63;;;-8.90;89.77
44148;BME280;29810;55.848;37.368;2023-02-28T03:03:44;99279.72;;;-8.87;89.98
44148;BME280;29810;55.848;37.368;2023-02-28T03:06:48;99285.78;;;-8.82;89.64
44148;BME280;29810;55.848;37.368;2023-02-28T03:09:56;99278.34;;;-8.79;89.77
44148;BME280;29810;55.848;37.368;2023-02-28T03:23:10;99246.22;;;-8.82;89.68
44148;BME280;29810;55.848;37.368;2023-02-28T03:26:26;99205.91;;;-9.00;89.66
44148;BME280;29810;55.848;37.368;2023-02-28T03:29:33;99245.22;;;-8.85;89.57
44148;BME280;29810;55.848;37.368;2023-02-28T03:32:40;99254.16;;;-8.93;89.86
44148;BME280;29810;55.848;37.368;2023-02-28T03:35:48;99243.31;;;-8.91;89.92
44148;BME280;29810;55.848;37.368;2023-02-28T03:38:56;99239.00;;;-8.93;89.89
44148;BME280;29810;55.848;37.368;2023-02-28T03:42:05;99244.75;;;-8.97;89.84
44148;BME280;29810;55.848;37.368;2023-02-28T03:45:14;99250.75;;;-8.94;89.95
44148;BME280;29810;55.848;37.368;2023-02-28T03:48:28;99239.13;;;-8.90;90.05
44148;BME280;29810;55.848;37.368;2023-02-28T03:51:33;99227.47;;;-8.87;89.63
44148;BME280;29810;55.848;37.368;2023-02-28T03:54:58;99227.12;;;-8.96;89.65
44148;BME280;29810;55.848;37.368;2023-02-28T04:01:53;99194.63;;;-8.87;89.46
44148;BME280;29810;55.848;37.368;2023-02-28T04:04:56;99196.06;;;-8.93;89.21
44148;BME280;29810;55.848;37.368;2023-02-28T04:08:05;99199.56;;;-8.90;89.08
44148;BME280;29810;55.848;37.368;2023-02-28T04:11:26;99202.25;;;-8.85;88.77
44148;BME280;29810;55.848;37.368;2023-02-28T04:14:30;99200.53;;;-8.86;88.71
44148;BME280;29810;55.848;37.368;2023-02-28T04:17:32;99195.44;;;-8.88;88.63
44148;BME280;29810;55.848;37.368;2023-02-28T04:20:33;99182.03;;;-8.85;88.27
44148;BME280;29810;55.848;37.368;2023-02-28T04:23:35;99185.37;;;-8.86;88.15
44148;BME280;29810;55.848;37.368;2023-02-28T04:26:37;99187.00;;;-8.88;87.83
44148;BME280;29810;55.848;37.368;2023-02-28T04:29:38;99178.00;;;-8.82;87.69
44148;BME280;29810;55.848;37.368;2023-02-28T04:32:39;99178.84;;;-8.81;87.46
44148;BME280;29810;55.848;37.368;2023-02-28T04:35:41;99168.03;;;-8.77;87.27
44148;BME280;29810;55.848;37.368;2023-02-28T04:38:43;99152.97;;;-8.75;87.02
44148;BME280;29810;55.848;37.368;2023-02-28T04:41:45;99145.28;;;-8.77;86.51
44148;BME280;29810;55.848;37.368;2023-02-28T04:44:47;99132.41;;;-8.62;86.32
44148;BME280;29810;55.848;37.368;2023-02-28T04:47:49;99133.94;;;-8.66;85.66
44148;BME280;29810;55.848;37.368;2023-02-28T04:50:51;99131.72;;;-8.58;85.67
44148;BME280;29810;55.848;37.368;2023-02-28T04:53:56;99124.19;;;-8.56;85.48
44148;BME280;29810;55.848;37.368;2023-02-28T04:57:01;99123.47;;;-8.52;85.12
44148;BME280;29810;55.848;37.368;2023-02-28T05:00:03;99115.78;;;-8.55;84.62
44148;BME280;29810;55.848;37.368;2023-02-28T05:03:08;99100.53;;;-8.58;84.42
44148;BME280;29810;55.848;37.368;2023-02-28T05:06:12;99112.22;;;-8.60;84.26
44148;BME280;29810;55.848;37.368;2023-02-28T05:09:14;99111.72;;;-8.52;84.33
44148;BME280;29810;55.848;37.368;2023-02-28T05:12:15;99099.06;;;-8.52;83.72
44148;BME280;29810;55.848;37.368;2023-02-28T05:15:17;99088.69;;;-8.59;83.22
44148;BME280;29810;55.848;37.368;2023-02-28T05:18:19;99079.88;;;-8.46;83.40
44148;BME280;29810;55.848;37.368;2023-02-28T05:21:27;99079.00;;;-8.47;82.98
44148;BME280;29810;55.848;37.368;2023-02-28T05:24:28;99060.50;;;-8.46;82.84
44148;BME280;29810;55.848;37.368;2023-02-28T05:27:30;99065.25;;;-8.31;82.18
44148;BME280;29810;55.848;37.368;2023-02-28T05:30:32;99070.22;;;-8.33;81.68
44148;BME280;29810;55.848;37.368;2023-02-28T05:33:34;99041.63;;;-8.30;81.37
44148;BME280;29810;55.848;37.368;2023-02-28T05:36:37;99015.41;;;-8.34;80.65
44148;BME280;29810;55.848;37.368;2023-02-28T05:39:38;99039.69;;;-8.13;80.22
44148;BME280;29810;55.848;37.368;2023-02-28T05:42:41;99042.50;;;-8.05;80.40
44148;BME280;29810;55.848;37.368;2023-02-28T05:45:42;99024.75;;;-8.07;79.80
44148;BME280;29810;55.848;37.368;2023-02-28T05:48:47;99011.66;;;-7.95;79.51
44148;BME280;29810;55.848;37.368;2023-02-28T05:51:48;99001.19;;;-7.80;78.90
44148;BME280;29810;55.848;37.368;2023-02-28T05:54:50;98993.00;;;-7.71;77.96
44148;BME280;29810;55.848;37.368;2023-02-28T05:57:51;98985.28;;;-7.76;77.58
44148;BME280;29810;55.848;37.368;2023-02-28T06:00:53;98989.03;;;-7.37;76.75
44148;BME280;29810;55.848;37.368;2023-02-28T06:03:54;98961.62;;;-6.93;76.28
44148;BME280;29810;55.848;37.368;2023-02-28T06:06:56;98959.78;;;-6.99;74.79
44148;BME280;29810;55.848;37.368;2023-02-28T06:09:58;98960.25;;;-6.82;74.32
44148;BME280;29810;55.848;37.368;2023-02-28T06:13:00;98950.78;;;-6.58;74.19
44148;BME280;29810;55.848;37.368;2023-02-28T06:16:04;98971.84;;;-6.29;72.73
44148;BME280;29810;55.848;37.368;2023-02-28T06:19:05;98936.59;;;-6.18;70.65
44148;BME280;29810;55.848;37.368;2023-02-28T06:22:07;98927.00;;;-5.93;70.60
44148;BME280;29810;55.848;37.368;2023-02-28T06:25:09;98912.75;;;-5.88;69.20
44148;BME280;29810;55.848;37.368;2023-02-28T06:28:11;98925.66;;;-5.79;68.58
44148;BME280;29810;55.848;37.368;2023-02-28T06:31:15;98922.59;;;-5.67;68.57
44148;BME280;29810;55.848;37.368;2023-02-28T06:34:17;98913.91;;;-5.39;67.53
44148;BME280;29810;55.848;37.368;2023-02-28T06:37:18;98901.13;;;-5.42;67.58
44148;BME280;29810;55.848;37.368;2023-02-28T06:40:20;98900.06;;;-5.52;67.61
44148;BME280;29810;55.848;37.368;2023-02-28T06:43:22;98890.94;;;-5.43;67.92
44148;BME280;29810;55.848;37.368;2023-02-28T06:46:24;98878.63;;;-5.25;68.47
44148;BME280;29810;55.848;37.368;2023-02-28T06:49:25;98863.75;;;-5.05;67.41
44148;BME280;29810;55.848;37.368;2023-02-28T06:52:27;98864.94;;;-5.32;67.21
44148;BME280;29810;55.848;37.368;2023-02-28T06:55:28;98847.97;;;-5.33;67.47
44148;BME280;29810;55.848;37.368;2023-02-28T06:58:30;98839.94;;;-5.10;67.77
44148;BME280;29810;55.848;37.368;2023-02-28T07:01:31;98824.09;;;-4.96;67.20
44148;BME280;29810;55.848;37.368;2023-02-28T07:04:34;98828.88;;;-5.12;67.44
44148;BME280;29810;55.848;37.368;2023-02-28T07:07:35;98819.22;;;-4.86;67.42
44148;BME280;29810;55.848;37.368;2023-02-28T07:10:39;98812.94;;;-5.03;67.88
44148;BME280;29810;55.848;37.368;2023-02-28T07:13:41;98798.47;;;-5.07;68.03
44148;BME280;29810;55.848;37.368;2023-02-28T07:16:42;98794.41;;;-4.97;68.37
44148;BME280;29810;55.848;37.368;2023-02-28T07:19:46;98792.19;;;-4.80;67.74
44148;BME280;29810;55.848;37.368;2023-02-28T07:22:48;98792.38;;;-4.70;68.19
44148;BME280;29810;55.848;37.368;2023-02-28T07:25:56;98789.13;;;-4.61;67.50
44148;BME280;29810;55.848;37.368;2023-02-28T07:28:58;98777.06;;;-4.73;67.69
44148;BME280;29810;55.848;37.368;2023-02-28T07:31:59;98774.78;;;-4.57;68.01
44148;BME280;29810;55.848;37.368;2023-02-28T07:35:01;98771.75;;;-4.35;68.17
44148;BME280;29810;55.848;37.368;2023-02-28T07:38:03;98741.31;;;-4.27;67.83
44148;BME280;29810;55.848;37.368;2023-02-28T07:41:05;98769.47;;;-4.16;68.14
44148;BME280;29810;55.848;37.368;2023-02-28T07:44:06;98759.53;;;-4.01;68.10
44148;BME280;29810;55.848;37.368;2023-02-28T07:47:09;98761.47;;;-3.83;67.41
44148;BME280;29810;55.848;37.368;2023-02-28T07:50:14;98754.09;;;-3.61;66.95
44148;BME280;29810;55.848;37.368;2023-02-28T07:53:17;98750.53;;;-3.74;66.82
44148;BME280;29810;55.848;37.368;2023-02-28T07:56:18;98724.41;;;-3.59;66.35
44148;BME280;29810;55.848;37.368;2023-02-28T07:59:21;98749.19;;;-3.44;65.74
44148;BME280;29810;55.848;37.368;2023-02-28T08:02:23;98747.31;;;-3.60;66.48
44148;BME280;29810;55.848;37.368;2023-02-28T08:05:25;98730.41;;;-3.55;66.88
44148;BME280;29810;55.848;37.368;2023-02-28T08:08:26;98718.41;;;-3.62;66.61
44148;BME280;29810;55.848;37.368;2023-02-28T08:11:32;98707.50;;;-3.49;67.07
44148;BME280;29810;55.848;37.368;2023-02-28T08:14:34;98702.63;;;-3.30;66.92
44148;BME280;29810;55.848;37.368;2023-02-28T08:17:36;98698.47;;;-3.19;66.36
44148;BME280;29810;55.848;37.368;2023-02-28T08:20:37;98687.28;;;-3.34;67.51
44148;BME280;29810;55.848;37.368;2023-02-28T08:23:39;98680.47;;;-3.36;67.84
44148;BME280;29810;55.848;37.368;2023-02-28T08:26:40;98672.06;;;-3.26;68.07
44148;BME280;29810;55.848;37.368;2023-02-28T08:29:42;98694.00;;;-3.42;68.41
44148;BME280;29810;55.848;37.368;2023-02-28T08:32:43;98744.91;;;-3.46;69.12
44148;BME280;29810;55.848;37.368;2023-02-28T08:35:45;98744.16;;;-3.41;69.33
44148;BME280;29810;55.848;37.368;2023-02-28T08:38:46;98740.00;;;-3.33;68.99
44148;BME280;29810;55.848;37.368;2023-02-28T08:41:48;98742.66;;;-3.23;69.51
44148;BME280;29810;55.848;37.368;2023-02-28T08:44:49;98734.09;;;-3.28;69.25
44148;BME280;29810;55.848;37.368;2023-02-28T08:47:51;98728.03;;;-3.40;69.67
44148;BME280;29810;55.848;37.368;2023-02-28T08:51:00;98727.16;;;-3.42;70.38
44148;BME280;29810;55.848;37.368;2023-02-28T08:54:03;98734.16;;;-3.22;70.38
44148;BME280;29810;55.848;37.368;2023-02-28T08:57:04;98718.88;;;-3.21;70.32
44148;BME280;29810;55.848;37.368;2023-02-28T09:00:07;98716.25;;;-3.27;70.46
44148;BME280;29810;55.848;37.368;2023-02-28T09:03:09;98702.75;;;-3.17;70.36
44148;BME280;29810;55.848;37.368;2023-02-28T09:06:10;98696.56;;;-3.42;70.78
44148;BME280;29810;55.848;37.368;2023-02-28T09:09:12;98695.78;;;-3.35;71.10
44148;BME280;29810;55.848;37.368;2023-02-28T09:12:14;98677.91;;;-3.38;71.28
44148;BME280;29810;55.848;37.368;2023-02-28T09:15:15;98669.72;;;-3.06;70.69
44148;BME280;29810;55.848;37.368;2023-02-28T09:18:17;98658.87;;;-2.80;70.09
44148;BME280;29810;55.848;37.368;2023-02-28T09:21:18;98660.66;;;-2.68;69.55
44148;BME280;29810;55.848;37.368;2023-02-28T09:24:20;98669.06;;;-2.85;69.34
44148;BME280;29810;55.848;37.368;2023-02-28T09:27:22;98683.50;;;-2.85;69.63
44148;BME280;29810;55.848;37.368;2023-02-28T09:30:23;98680.78;;;-3.04;70.24
44148;BME280;29810;55.848;37.368;2023-02-28T09:33:25;98678.34;;;-2.91;70.45
44148;BME280;29810;55.848;37.368;2023-02-28T09:36:28;98680.09;;;-2.83;70.25
44148;BME280;29810;55.848;37.368;2023-02-28T09:39:30;98668.31;;;-2.71;70.32
44148;BME280;29810;55.848;37.368;2023-02-28T09:42:34;98650.56;;;-2.56;69.47
44148;BME280;29810;55.848;37.368;2023-02-28T09:45:37;98628.47;;;-2.49;69.88
44148;BME280;29810;55.848;37.368;2023-02-28T09:48:44;98632.88;;;-2.20;69.01
44148;BME280;29810;55.848;37.368;2023-02-28T09:54:56;98636.22;;;-2.34;69.59
44148;BME280;29810;55.848;37.368;2023-02-28T09:57:57;98619.16;;;-2.41;69.74
44148;BME280;29810;55.848;37.368;2023-02-28T10:10:47;98596.84;;;-2.70;71.14
44148;BME280;29810;55.848;37.368;2023-02-28T10:13:52;98586.72;;;-2.57;71.57
44148;BME280;29810;55.848;37.368;2023-02-28T10:16:57;98580.78;;;-2.53;70.82
44148;BME280;29810;55.848;37.368;2023-02-28T10:20:12;98589.22;;;-2.67;71.41
44148;BME280;29810;55.848;37.368;2023-02-28T10:23:56;98579.91;;;-2.57;71.98
44148;BME280;29810;55.848;37.368;2023-02-28T10:26:52;98578.22;;;-2.56;72.19
44148;BME280;29810;55.848;37.368;2023-02-28T10:30:00;98589.28;;;-2.56;71.74
44148;BME280;29810;55.848;37.368;2023-02-28T10:33:01;98577.22;;;-2.78;72.35
44148;BME280;29810;55.848;37.368;2023-02-28T10:36:04;98579.78;;;-2.80;72.64
44148;BME280;29810;55.848;37.368;2023-02-28T10:42:40;98569.75;;;-2.49;73.70
44148;BME280;29810;55.848;37.368;2023-02-28T10:49:17;98561.16;;;-2.65;73.32
44148;BME280;29810;55.848;37.368;2023-02-28T10:52:37;98548.44;;;-2.57;73.44
44148;BME280;29810;55.848;37.368;2023-02-28T10:55:40;98534.00;;;-2.52;73.02
44148;BME280;29810;55.848;37.368;2023-02-28T10:59:01;98531.41;;;-2.57;73.47
44148;BME280;29810;55.848;37.368;2023-02-28T11:02:31;98531.50;;;-2.43;74.15
44148;BME280;29810;55.848;37.368;2023-02-28T11:05:35;98514.50;;;-2.36;73.97
44148;BME280;29810;55.848;37.368;2023-02-28T11:08:45;98520.44;;;-2.36;73.60
44148;BME280;29810;55.848;37.368;2023-02-28T11:11:47;98516.19;;;-2.41;74.23
44148;BME280;29810;55.848;37.368;2023-02-28T11:15:24;98516.13;;;-2.44;74.41
44148;BME280;29810;55.848;37.368;2023-02-28T11:18:30;98523.03;;;-2.31;74.54
44148;BME280;29810;55.848;37.368;2023-02-28T11:21:36;98512.81;;;-2.29;74.53
44148;BME280;29810;55.848;37.368;2023-02-28T11:24:44;98510.25;;;-2.33;74.58
44148;BME280;29810;55.848;37.368;2023-02-28T11:31:01;98505.25;;;-1.95;74.35
44148;BME280;29810;55.848;37.368;2023-02-28T11:34:23;98500.13;;;-2.06;75.25
44148;BME280;29810;55.848;37.368;2023-02-28T11:37:24;98503.56;;;-1.93;75.13
44148;BME280;29810;55.848;37.368;2023-02-28T11:40:37;98493.28;;;-2.15;77.31
44148;BME280;29810;55.848;37.368;2023-02-28T11:44:01;98489.81;;;-2.36;79.14
44148;BME280;29810;55.848;37.368;2023-02-28T11:47:26;98489.81;;;-2.36;81.17
44148;BME280;29810;55.848;37.368;2023-02-28T12:04:22;98467.53;;;-2.74;85.24
44148;BME280;29810;55.848;37.368;2023-02-28T12:21:06;98453.94;;;-2.71;86.90
44148;BME280;29810;55.848;37.368;2023-02-28T12:27:34;98446.25;;;-2.77;88.03
44148;BME280;29810;55.848;37.368;2023-02-28T12:30:43;98451.34;;;-2.82;88.50
44148;BME280;29810;55.848;37.368;2023-02-28T12:33:59;98442.84;;;-2.75;88.82
44148;BME280;29810;55.848;37.368;2023-02-28T12:37:10;98435.25;;;-2.62;88.81
44148;BME280;29810;55.848;37.368;2023-02-28T12:40:19;98419.06;;;-2.64;87.77
44148;BME280;29810;55.848;37.368;2023-02-28T12:43:27;98426.72;;;-2.63;87.94
44148;BME280;29810;55.848;37.368;2023-02-28T12:46:49;98416.53;;;-2.68;87.49
44148;BME280;29810;55.848;37.368;2023-02-28T12:49:58;98413.19;;;-2.46;87.77
44148;BME280;29810;55.848;37.368;2023-02-28T12:53:43;98380.78;;;-2.64;87.42
44148;BME280;29810;55.848;37.368;2023-02-28T12:57:09;98364.66;;;-2.56;87.41
44148;BME280;29810;55.848;37.368;2023-02-28T13:00:19;98380.81;;;-2.54;87.14
44148;BME280;29810;55.848;37.368;2023-02-28T13:10:00;98349.34;;;-2.53;87.25
44148;BME280;29810;55.848;37.368;2023-02-28T13:13:05;98353.63;;;-2.41;86.82
44148;BME280;29810;55.848;37.368;2023-02-28T13:16:09;98365.50;;;-2.44;86.67
44148;BME280;29810;55.848;37.368;2023-02-28T13:19:11;98363.84;;;-2.44;86.71
44148;BME280;29810;55.848;37.368;2023-02-28T13:28:58;98362.16;;;-2.23;86.03
44148;BME280;29810;55.848;37.368;2023-02-28T13:38:13;98337.47;;;-2.10;85.81
44148;BME280;29810;55.848;37.368;2023-02-28T13:44:29;98329.78;;;-2.03;86.27
44148;BME280;29810;55.848;37.368;2023-02-28T13:47:48;98326.41;;;-1.97;85.50
44148;BME280;29810;55.848;37.368;2023-02-28T13:50:52;98326.38;;;-2.02;86.01
44148;BME280;29810;55.848;37.368;2023-02-28T13:54:04;98311.09;;;-2.08;86.22
44148;BME280;29810;55.848;37.368;2023-02-28T13:57:25;98323.00;;;-2.01;85.88
44148;BME280;29810;55.848;37.368;2023-02-28T14:00:52;98325.53;;;-2.07;86.51
44148;BME280;29810;55.848;37.368;2023-02-28T14:07:54;98320.44;;;-2.10;87.55
44148;BME280;29810;55.848;37.368;2023-02-28T14:11:08;98328.09;;;-2.14;87.50
44148;BME280;29810;55.848;37.368;2023-02-28T14:17:38;98316.19;;;-2.05;87.89
44148;BME280;29810;55.848;37.368;2023-02-28T14:20:40;98326.38;;;-2.02;87.52
44148;BME280;29810;55.848;37.368;2023-02-28T14:27:29;98307.66;;;-2.10;88.61
44148;BME280;29810;55.848;37.368;2023-02-28T14:37:41;98300.84;;;-1.94;90.05
44148;BME280;29810;55.848;37.368;2023-02-28T14:40:47;98297.44;;;-1.99;90.37
44148;BME280;29810;55.848;37.368;2023-02-28T14:43:59;98288.09;;;-2.19;91.14
44148;BME280;29810;55.848;37.368;2023-02-28T14:47:02;98285.53;;;-2.12;91.67
44148;BME280;29810;55.848;37.368;2023-02-28T14:50:17;98287.22;;;-2.14;91.80
44148;BME280;29810;55.848;37.368;2023-02-28T14:53:20;98269.34;;;-1.96;91.03
44148;BME280;29810;55.848;37.368;2023-02-28T14:56:30;98283.81;;;-2.03;91.03
44148;BME280;29810;55.848;37.368;2023-02-28T14:59:35;98278.72;;;-2.09;91.59
44148;BME280;29810;55.848;37.368;2023-02-28T15:02:38;98283.81;;;-2.06;91.86
44148;BME280;29810;55.848;37.368;2023-02-28T15:05:40;98288.91;;;-1.90;91.37
44148;BME280;29810;55.848;37.368;2023-02-28T15:08:45;98275.28;;;-1.89;91.13
44148;BME280;29810;55.848;37.368;2023-02-28T15:11:48;98291.47;;;-1.90;90.97
44148;BME280;29810;55.848;37.368;2023-02-28T15:18:46;98268.47;;;-1.90;91.64
44148;BME280;29810;55.848;37.368;2023-02-28T15:22:18;98268.47;;;-1.92;91.74
44148;BME280;29810;55.848;37.368;2023-02-28T15:25:24;98259.06;;;-1.76;92.14
44148;BME280;29810;55.848;37.368;2023-02-28T15:28:28;98257.38;;;-1.83;91.50
44148;BME280;29810;55.848;37.368;2023-02-28T15:31:33;98253.13;;;-1.75;91.46
44148;BME280;29810;55.848;37.368;2023-02-28T15:34:39;98249.69;;;-1.71;90.90
44148;BME280;29810;55.848;37.368;2023-02-28T15:37:47;98265.84;;;-1.69;91.01
44148;BME280;29810;55.848;37.368;2023-02-28T15:40:54;98259.06;;;-1.70;91.17
44148;BME280;29810;55.848;37.368;2023-02-28T15:44:27;98265.00;;;-1.64;91.39
44148;BME280;29810;55.848;37.368;2023-02-28T15:47:32;98264.09;;;-1.51;91.25
44148;BME280;29810;55.848;37.368;2023-02-28T15:50:34;98249.69;;;-1.64;91.38
44148;BME280;29810;55.848;37.368;2023-02-28T15:53:58;98251.34;;;-1.63;91.78
44148;BME280;29810;55.848;37.368;2023-02-28T15:57:05;98256.47;;;-1.60;92.12
44148;BME280;29810;55.848;37.368;2023-02-28T16:00:13;98252.22;;;-1.66;92.48
44148;BME280;29810;55.848;37.368;2023-02-28T16:03:39;98247.94;;;-1.56;92.41
44148;BME280;29810;55.848;37.368;2023-02-28T16:07:01;98240.22;;;-1.47;92.69
44148;BME280;29810;55.848;37.368;2023-02-28T16:10:07;98238.50;;;-1.40;92.67
44148;BME280;29810;55.848;37.368;2023-02-28T16:13:11;98228.31;;;-1.53;92.15
44148;BME280;29810;55.848;37.368;2023-02-28T16:16:17;98235.16;;;-1.52;92.53
44148;BME280;29810;55.848;37.368;2023-02-28T16:19:22;98222.31;;;-1.45;92.44
44148;BME280;29810;55.848;37.368;2023-02-28T16:22:25;98225.75;;;-1.51;92.42
44148;BME280;29810;55.848;37.368;2023-02-28T16:25:34;98230.84;;;-1.42;92.11
44148;BME280;29810;55.848;37.368;2023-02-28T16:28:38;98234.22;;;-1.37;91.95
44148;BME280;29810;55.848;37.368;2023-02-28T16:31:39;98226.53;;;-1.37;92.30
44148;BME280;29810;55.848;37.368;2023-02-28T16:34:43;98221.50;;;-1.47;92.55
44148;BME280;29810;55.848;37.368;2023-02-28T16:37:44;98228.28;;;-1.46;93.63
44148;BME280;29810;55.848;37.368;2023-02-28T16:40:46;98219.81;;;-1.55;94.15
44148;BME280;29810;55.848;37.368;2023-02-28T16:43:52;98222.31;;;-1.41;94.79
44148;BME280;29810;55.848;37.368;2023-02-28T16:46:59;98224.78;;;-1.27;95.31
44148;BME280;29810;55.848;37.368;2023-02-28T16:50:00;98222.19;;;-1.21;95.27
44148;BME280;29810;55.848;37.368;2023-02-28T16:53:02;98236.69;;;-1.24;95.17
44148;BME280;29810;55.848;37.368;2023-02-28T16:56:04;98234.97;;;-1.19;95.52
44148;BME280;29810;55.848;37.368;2023-02-28T16:59:08;98235.94;;;-1.42;95.96
44148;BME280;29810;55.848;37.368;2023-02-28T17:02:14;98229.19;;;-1.58;97.20
44148;BME280;29810;55.848;37.368;2023-02-28T17:05:17;98218.97;;;-1.55;97.84
44148;BME280;29810;55.848;37.368;2023-02-28T17:08:19;98222.41;;;-1.59;97.62
44148;BME280;29810;55.848;37.368;2023-02-28T17:11:25;98222.41;;;-1.65;98.10
44148;BME280;29810;55.848;37.368;2023-02-28T17:14:27;98202.00;;;-1.75;98.23
44148;BME280;29810;55.848;37.368;2023-02-28T17:17:29;98207.09;;;-1.72;98.35
44148;BME280;29810;55.848;37.368;2023-02-28T17:20:31;98211.38;;;-1.80;98.25
44148;BME280;29810;55.848;37.368;2023-02-28T17:23:33;98218.19;;;-1.88;98.29
44148;BME280;29810;55.848;37.368;2023-02-28T17:26:35;98203.78;;;-1.98;98.39
44148;BME280;29810;55.848;37.368;2023-02-28T17:29:37;98211.41;;;-1.89;97.90
44148;BME280;29810;55.848;37.368;2023-02-28T17:32:38;98221.62;;;-1.89;97.86
44148;BME280;29810;55.848;37.368;2023-02-28T17:35:40;98221.62;;;-1.95;97.32
44148;BME280;29810;55.848;37.368;2023-02-28T17:38:42;98228.41;;;-1.80;96.73
44148;BME280;29810;55.848;37.368;2023-02-28T17:41:44;98235.25;;;-1.83;95.19
44148;BME280;29810;55.848;37.368;2023-02-28T17:44:45;98191.00;;;-1.98;95.82
44148;BME280;29810;55.848;37.368;2023-02-28T17:47:49;98248.78;;;-1.63;95.11
44148;BME280;29810;55.848;37.368;2023-02-28T17:50:51;98262.56;;;-2.14;92.04
44148;BME280;29810;55.848;37.368;2023-02-28T17:53:53;98268.44;;;-3.11;95.81
44148;BME280;29810;55.848;37.368;2023-02-28T17:56:54;98283.56;;;-3.48;100.00
44148;BME280;29810;55.848;37.368;2023-02-28T17:59:56;98276.56;;;-3.89;100.00
44148;BME280;29810;55.848;37.368;2023-02-28T18:02:58;98309.59;;;-4.00;100.00
44148;BME280;29810;55.848;37.368;2023-02-28T18:06:00;98295.13;;;-4.06;100.00
44148;BME280;29810;55.848;37.368;2023-02-28T18:09:08;98277.31;;;-4.03;100.00
44148;BME280;29810;55.848;37.368;2023-02-28T18:12:13;98275.69;;;-3.93;100.00
44148;BME280;29810;55.848;37.368;2023-02-28T18:15:15;98279.97;;;-3.87;100.00
44148;BME280;29810;55.848;37.368;2023-02-28T18:18:17;98284.31;;;-3.68;100.00
44148;BME280;29810;55.848;37.368;2023-02-28T18:21:18;98281.06;;;-3.45;100.00
44148;BME280;29810;55.848;37.368;2023-02-28T18:24:21;98264.91;;;-3.35;100.00
44148;BME280;29810;55.848;37.368;2023-02-28T18:27:24;98272.69;;;-3.08;100.00